sensor_id;sensor_type;location;lat;lon;timestamp;P1;durP1;ratioP1;P2;durP2;ratioP2
44110;SDS011;29774;52.664;5.074;2023-04-08T00:00:34;4.40;;;3.92;;
44110;SDS011;29774;52.664;5.074;2023-04-08T00:03:00;3.70;;;3.40;;
44110;SDS011;29774;52.664;5.074;2023-04-08T00:05:26;4.13;;;3.83;;
44110;SDS011;29774;52.664;5.074;2023-04-08T00:07:52;4.53;;;3.92;;
44110;SDS011;29774;52.664;5.074;2023-04-08T00:10:18;4.47;;;4.07;;
44110;SDS011;29774;52.664;5.074;2023-04-08T00:12:44;4.50;;;4.10;;
44110;SDS011;29774;52.664;5.074;2023-04-08T00:15:11;5.63;;;5.07;;
44110;SDS011;29774;52.664;5.074;2023-04-08T00:17:36;4.45;;;3.97;;
44110;SDS011;29774;52.664;5.074;2023-04-08T00:20:02;5.88;;;4.90;;
44110;SDS011;29774;52.664;5.074;2023-04-08T00:22:28;5.63;;;4.80;;
44110;SDS011;29774;52.664;5.074;2023-04-08T00:24:54;4.95;;;4.30;;
44110;SDS011;29774;52.664;5.074;2023-04-08T00:27:21;6.38;;;4.30;;
44110;SDS011;29774;52.664;5.074;2023-04-08T00:29:49;5.00;;;4.50;;
44110;SDS011;29774;52.664;5.074;2023-04-08T00:32:14;4.60;;;4.20;;
44110;SDS011;29774;52.664;5.074;2023-04-08T00:34:40;5.13;;;4.10;;
44110;SDS011;29774;52.664;5.074;2023-04-08T00:37:06;5.47;;;4.43;;
44110;SDS011;29774;52.664;5.074;2023-04-08T00:39:31;5.25;;;4.70;;
44110;SDS011;29774;52.664;5.074;2023-04-08T00:41:57;5.38;;;4.88;;
44110;SDS011;29774;52.664;5.074;2023-04-08T00:44:22;5.13;;;4.63;;
44110;SDS011;29774;52.664;5.074;2023-04-08T00:46:48;5.18;;;4.68;;
44110;SDS011;29774;52.664;5.074;2023-04-08T00:49:14;6.45;;;5.55;;
44110;SDS011;29774;52.664;5.074;2023-04-08T00:51:40;5.55;;;5.00;;
44110;SDS011;29774;52.664;5.074;2023-04-08T00:54:05;5.47;;;4.97;;
44110;SDS011;29774;52.664;5.074;2023-04-08T00:56:31;7.10;;;5.15;;
44110;SDS011;29774;52.664;5.074;2023-04-08T00:58:59;6.55;;;4.95;;
44110;SDS011;29774;52.664;5.074;2023-04-08T01:03:57;5.78;;;5.20;;
44110;SDS011;29774;52.664;5.074;2023-04-08T01:06:39;4.85;;;4.40;;
44110;SDS011;29774;52.664;5.074;2023-04-08T01:09:11;5.75;;;4.82;;
44110;SDS011;29774;52.664;5.074;2023-04-08T01:11:37;5.85;;;4.95;;
44110;SDS011;29774;52.664;5.074;2023-04-08T01:14:08;6.10;;;4.88;;
44110;SDS011;29774;52.664;5.074;2023-04-08T01:16:37;5.43;;;4.93;;
44110;SDS011;29774;52.664;5.074;2023-04-08T01:19:05;5.93;;;4.70;;
44110;SDS011;29774;52.664;5.074;2023-04-08T01:21:33;5.97;;;4.80;;
44110;SDS011;29774;52.664;5.074;2023-04-08T01:24:14;5.70;;;4.97;;
44110;SDS011;29774;52.664;5.074;2023-04-08T01:26:44;6.22;;;5.15;;
44110;SDS011;29774;52.664;5.074;2023-04-08T01:29:10;6.65;;;4.82;;
44110;SDS011;29774;52.664;5.074;2023-04-08T01:31:38;5.65;;;5.10;;
44110;SDS011;29774;52.664;5.074;2023-04-08T01:34:06;7.97;;;5.88;;
44110;SDS011;29774;52.664;5.074;2023-04-08T01:36:33;6.03;;;5.43;;
44110;SDS011;29774;52.664;5.074;2023-04-08T01:39:01;6.50;;;5.40;;
44110;SDS011;29774;52.664;5.074;2023-04-08T01:41:29;6.53;;;5.45;;
44110;SDS011;29774;52.664;5.074;2023-04-08T01:43:57;7.13;;;5.88;;
44110;SDS011;29774;52.664;5.074;2023-04-08T01:46:23;7.85;;;6.65;;
44110;SDS011;29774;52.664;5.074;2023-04-08T01:48:49;8.02;;;7.10;;
44110;SDS011;29774;52.664;5.074;2023-04-08T01:51:16;8.60;;;6.90;;
44110;SDS011;29774;52.664;5.074;2023-04-08T01:53:42;7.18;;;6.47;;
44110;SDS011;29774;52.664;5.074;2023-04-08T01:56:10;8.75;;;7.60;;
44110;SDS011;29774;52.664;5.074;2023-04-08T01:58:38;8.27;;;7.13;;
44110;SDS011;29774;52.664;5.074;2023-04-08T02:01:09;8.25;;;7.20;;
44110;SDS011;29774;52.664;5.074;2023-04-08T02:03:36;10.15;;;7.68;;
44110;SDS011;29774;52.664;5.074;2023-04-08T02:06:02;9.45;;;7.45;;
44110;SDS011;29774;52.664;5.074;2023-04-08T02:08:29;7.82;;;7.00;;
44110;SDS011;29774;52.664;5.074;2023-04-08T02:10:54;8.85;;;7.82;;
44110;SDS011;29774;52.664;5.074;2023-04-08T02:13:20;8.15;;;7.32;;
44110;SDS011;29774;52.664;5.074;2023-04-08T02:15:47;8.55;;;7.68;;
44110;SDS011;29774;52.664;5.074;2023-04-08T02:18:21;8.43;;;7.63;;
44110;SDS011;29774;52.664;5.074;2023-04-08T02:20:52;12.35;;;8.23;;
44110;SDS011;29774;52.664;5.074;2023-04-08T02:23:40;10.38;;;8.00;;
44110;SDS011;29774;52.664;5.074;2023-04-08T02:26:15;8.38;;;7.55;;
44110;SDS011;29774;52.664;5.074;2023-04-08T02:28:42;8.75;;;7.75;;
44110;SDS011;29774;52.664;5.074;2023-04-08T02:31:09;10.30;;;7.47;;
44110;SDS011;29774;52.664;5.074;2023-04-08T02:33:39;10.07;;;8.00;;
44110;SDS011;29774;52.664;5.074;2023-04-08T02:36:06;8.55;;;7.47;;
44110;SDS011;29774;52.664;5.074;2023-04-08T02:38:33;8.38;;;7.55;;
44110;SDS011;29774;52.664;5.074;2023-04-08T02:40:59;7.75;;;6.95;;
44110;SDS011;29774;52.664;5.074;2023-04-08T02:43:25;10.15;;;8.48;;
44110;SDS011;29774;52.664;5.074;2023-04-08T02:45:56;9.07;;;7.90;;
44110;SDS011;29774;52.664;5.074;2023-04-08T02:48:27;8.88;;;7.18;;
44110;SDS011;29774;52.664;5.074;2023-04-08T02:50:53;9.60;;;7.95;;
44110;SDS011;29774;52.664;5.074;2023-04-08T02:53:18;9.25;;;8.07;;
44110;SDS011;29774;52.664;5.074;2023-04-08T02:55:44;8.80;;;7.90;;
44110;SDS011;29774;52.664;5.074;2023-04-08T02:58:10;10.55;;;8.07;;
44110;SDS011;29774;52.664;5.074;2023-04-08T03:00:35;9.70;;;7.72;;
44110;SDS011;29774;52.664;5.074;2023-04-08T03:03:03;10.05;;;8.27;;
44110;SDS011;29774;52.664;5.074;2023-04-08T03:05:30;8.00;;;7.20;;
44110;SDS011;29774;52.664;5.074;2023-04-08T03:07:55;9.38;;;7.68;;
44110;SDS011;29774;52.664;5.074;2023-04-08T03:10:21;9.02;;;7.43;;
44110;SDS011;29774;52.664;5.074;2023-04-08T03:12:47;9.35;;;7.70;;
44110;SDS011;29774;52.664;5.074;2023-04-08T03:15:12;9.60;;;7.43;;
44110;SDS011;29774;52.664;5.074;2023-04-08T03:17:38;8.85;;;7.43;;
44110;SDS011;29774;52.664;5.074;2023-04-08T03:20:03;9.13;;;7.28;;
44110;SDS011;29774;52.664;5.074;2023-04-08T03:22:30;7.95;;;6.82;;
44110;SDS011;29774;52.664;5.074;2023-04-08T03:24:57;8.68;;;7.82;;
44110;SDS011;29774;52.664;5.074;2023-04-08T03:27:22;8.63;;;7.38;;
44110;SDS011;29774;52.664;5.074;2023-04-08T03:29:48;8.27;;;7.07;;
44110;SDS011;29774;52.664;5.074;2023-04-08T03:32:14;9.65;;;6.68;;
44110;SDS011;29774;52.664;5.074;2023-04-08T03:34:39;7.28;;;6.57;;
44110;SDS011;29774;52.664;5.074;2023-04-08T03:37:05;10.40;;;7.25;;
44110;SDS011;29774;52.664;5.074;2023-04-08T03:39:31;10.00;;;6.97;;
44110;SDS011;29774;52.664;5.074;2023-04-08T03:41:57;8.32;;;7.22;;
44110;SDS011;29774;52.664;5.074;2023-04-08T03:44:24;8.52;;;6.78;;
44110;SDS011;29774;52.664;5.074;2023-04-08T03:46:50;8.38;;;7.13;;
44110;SDS011;29774;52.664;5.074;2023-04-08T03:49:16;8.65;;;6.70;;
44110;SDS011;29774;52.664;5.074;2023-04-08T03:51:42;8.43;;;7.53;;
44110;SDS011;29774;52.664;5.074;2023-04-08T03:54:08;7.80;;;6.82;;
44110;SDS011;29774;52.664;5.074;2023-04-08T03:56:33;7.07;;;6.38;;
44110;SDS011;29774;52.664;5.074;2023-04-08T03:58:59;9.93;;;6.80;;
44110;SDS011;29774;52.664;5.074;2023-04-08T04:01:25;7.45;;;6.53;;
44110;SDS011;29774;52.664;5.074;2023-04-08T04:03:50;8.68;;;6.43;;
44110;SDS011;29774;52.664;5.074;2023-04-08T04:06:16;10.40;;;7.05;;
44110;SDS011;29774;52.664;5.074;2023-04-08T04:08:41;7.70;;;6.90;;
44110;SDS011;29774;52.664;5.074;2023-04-08T04:11:07;7.45;;;6.38;;
44110;SDS011;29774;52.664;5.074;2023-04-08T04:13:32;7.20;;;6.15;;
44110;SDS011;29774;52.664;5.074;2023-04-08T04:15:58;7.57;;;6.30;;
44110;SDS011;29774;52.664;5.074;2023-04-08T04:18:24;7.35;;;6.63;;
44110;SDS011;29774;52.664;5.074;2023-04-08T04:20:49;7.13;;;6.43;;
44110;SDS011;29774;52.664;5.074;2023-04-08T04:23:15;7.88;;;6.43;;
44110;SDS011;29774;52.664;5.074;2023-04-08T04:25:40;6.60;;;5.90;;
44110;SDS011;29774;52.664;5.074;2023-04-08T04:28:06;7.25;;;5.93;;
44110;SDS011;29774;52.664;5.074;2023-04-08T04:30:35;8.20;;;6.20;;
44110;SDS011;29774;52.664;5.074;2023-04-08T04:33:02;7.80;;;5.97;;
44110;SDS011;29774;52.664;5.074;2023-04-08T04:35:28;7.22;;;6.20;;
44110;SDS011;29774;52.664;5.074;2023-04-08T04:37:54;7.97;;;5.95;;
44110;SDS011;29774;52.664;5.074;2023-04-08T04:40:19;5.80;;;5.20;;
44110;SDS011;29774;52.664;5.074;2023-04-08T04:42:45;6.13;;;5.38;;
44110;SDS011;29774;52.664;5.074;2023-04-08T04:45:11;7.30;;;5.82;;
44110;SDS011;29774;52.664;5.074;2023-04-08T04:47:36;8.02;;;5.75;;
44110;SDS011;29774;52.664;5.074;2023-04-08T04:50:02;9.85;;;6.25;;
44110;SDS011;29774;52.664;5.074;2023-04-08T04:52:28;6.93;;;5.45;;
44110;SDS011;29774;52.664;5.074;2023-04-08T04:54:53;6.90;;;6.03;;
44110;SDS011;29774;52.664;5.074;2023-04-08T04:57:20;7.07;;;6.03;;
44110;SDS011;29774;52.664;5.074;2023-04-08T04:59:46;7.45;;;6.20;;
44110;SDS011;29774;52.664;5.074;2023-04-08T05:02:12;6.80;;;6.10;;
44110;SDS011;29774;52.664;5.074;2023-04-08T05:04:37;8.75;;;6.30;;
44110;SDS011;29774;52.664;5.074;2023-04-08T05:07:03;7.45;;;5.95;;
44110;SDS011;29774;52.664;5.074;2023-04-08T05:09:29;8.20;;;6.22;;
44110;SDS011;29774;52.664;5.074;2023-04-08T05:11:55;8.90;;;6.32;;
44110;SDS011;29774;52.664;5.074;2023-04-08T05:14:21;8.95;;;6.60;;
44110;SDS011;29774;52.664;5.074;2023-04-08T05:16:47;8.95;;;7.03;;
44110;SDS011;29774;52.664;5.074;2023-04-08T05:19:12;9.00;;;6.07;;
44110;SDS011;29774;52.664;5.074;2023-04-08T05:21:38;9.82;;;6.25;;
44110;SDS011;29774;52.664;5.074;2023-04-08T05:24:04;6.60;;;5.97;;
44110;SDS011;29774;52.664;5.074;2023-04-08T05:26:30;8.90;;;5.75;;
44110;SDS011;29774;52.664;5.074;2023-04-08T05:28:55;6.85;;;6.13;;
44110;SDS011;29774;52.664;5.074;2023-04-08T05:31:21;8.05;;;6.35;;
44110;SDS011;29774;52.664;5.074;2023-04-08T05:33:46;8.27;;;6.38;;
44110;SDS011;29774;52.664;5.074;2023-04-08T05:36:12;7.20;;;5.88;;
44110;SDS011;29774;52.664;5.074;2023-04-08T05:38:39;6.93;;;5.72;;
44110;SDS011;29774;52.664;5.074;2023-04-08T05:41:06;8.05;;;6.05;;
44110;SDS011;29774;52.664;5.074;2023-04-08T05:43:32;7.40;;;6.28;;
44110;SDS011;29774;52.664;5.074;2023-04-08T05:45:58;7.28;;;6.18;;
44110;SDS011;29774;52.664;5.074;2023-04-08T05:48:24;7.63;;;6.82;;
44110;SDS011;29774;52.664;5.074;2023-04-08T05:50:49;8.60;;;6.53;;
44110;SDS011;29774;52.664;5.074;2023-04-08T05:53:15;7.32;;;6.15;;
44110;SDS011;29774;52.664;5.074;2023-04-08T05:55:41;11.20;;;7.97;;
44110;SDS011;29774;52.664;5.074;2023-04-08T05:58:06;9.25;;;6.90;;
44110;SDS011;29774;52.664;5.074;2023-04-08T06:00:32;7.80;;;6.63;;
44110;SDS011;29774;52.664;5.074;2023-04-08T06:02:58;7.00;;;6.03;;
44110;SDS011;29774;52.664;5.074;2023-04-08T06:05:24;8.52;;;6.65;;
44110;SDS011;29774;52.664;5.074;2023-04-08T06:07:49;8.82;;;7.10;;
44110;SDS011;29774;52.664;5.074;2023-04-08T06:10:15;8.32;;;7.38;;
44110;SDS011;29774;52.664;5.074;2023-04-08T06:12:41;10.43;;;7.28;;
44110;SDS011;29774;52.664;5.074;2023-04-08T06:15:07;9.60;;;7.45;;
44110;SDS011;29774;52.664;5.074;2023-04-08T06:17:36;9.27;;;6.63;;
44110;SDS011;29774;52.664;5.074;2023-04-08T06:20:02;8.50;;;6.65;;
44110;SDS011;29774;52.664;5.074;2023-04-08T06:22:29;11.00;;;8.07;;
44110;SDS011;29774;52.664;5.074;2023-04-08T06:24:55;11.10;;;8.07;;
44110;SDS011;29774;52.664;5.074;2023-04-08T06:27:20;9.50;;;7.57;;
44110;SDS011;29774;52.664;5.074;2023-04-08T06:29:46;12.60;;;9.10;;
44110;SDS011;29774;52.664;5.074;2023-04-08T06:32:12;11.80;;;9.07;;
44110;SDS011;29774;52.664;5.074;2023-04-08T06:34:38;9.02;;;8.05;;
44110;SDS011;29774;52.664;5.074;2023-04-08T06:37:05;9.38;;;8.38;;
44110;SDS011;29774;52.664;5.074;2023-04-08T06:39:31;11.18;;;8.25;;
44110;SDS011;29774;52.664;5.074;2023-04-08T06:41:56;10.70;;;8.55;;
44110;SDS011;29774;52.664;5.074;2023-04-08T06:44:22;12.52;;;8.50;;
44110;SDS011;29774;52.664;5.074;2023-04-08T06:46:48;10.52;;;8.00;;
44110;SDS011;29774;52.664;5.074;2023-04-08T06:49:13;9.65;;;7.63;;
44110;SDS011;29774;52.664;5.074;2023-04-08T06:51:39;10.65;;;9.07;;
44110;SDS011;29774;52.664;5.074;2023-04-08T06:54:05;13.45;;;9.60;;
44110;SDS011;29774;52.664;5.074;2023-04-08T06:56:31;14.23;;;9.48;;
44110;SDS011;29774;52.664;5.074;2023-04-08T06:58:56;13.43;;;9.73;;
44110;SDS011;29774;52.664;5.074;2023-04-08T07:01:22;18.77;;;9.57;;
44110;SDS011;29774;52.664;5.074;2023-04-08T07:03:48;12.73;;;9.95;;
44110;SDS011;29774;52.664;5.074;2023-04-08T07:06:14;11.18;;;9.30;;
44110;SDS011;29774;52.664;5.074;2023-04-08T07:08:40;10.95;;;9.27;;
44110;SDS011;29774;52.664;5.074;2023-04-08T07:11:06;12.95;;;10.18;;
44110;SDS011;29774;52.664;5.074;2023-04-08T07:13:32;12.25;;;9.50;;
44110;SDS011;29774;52.664;5.074;2023-04-08T07:15:58;13.38;;;9.85;;
44110;SDS011;29774;52.664;5.074;2023-04-08T07:18:24;13.00;;;9.52;;
44110;SDS011;29774;52.664;5.074;2023-04-08T07:20:50;13.10;;;10.05;;
44110;SDS011;29774;52.664;5.074;2023-04-08T07:23:17;13.60;;;9.98;;
44110;SDS011;29774;52.664;5.074;2023-04-08T07:25:44;11.77;;;9.98;;
44110;SDS011;29774;52.664;5.074;2023-04-08T07:28:10;12.13;;;8.75;;
44110;SDS011;29774;52.664;5.074;2023-04-08T07:30:35;12.90;;;9.48;;
44110;SDS011;29774;52.664;5.074;2023-04-08T07:33:01;11.38;;;9.57;;
44110;SDS011;29774;52.664;5.074;2023-04-08T07:35:26;10.98;;;9.30;;
44110;SDS011;29774;52.664;5.074;2023-04-08T07:37:52;10.90;;;9.80;;
44110;SDS011;29774;52.664;5.074;2023-04-08T07:40:19;11.98;;;9.00;;
44110;SDS011;29774;52.664;5.074;2023-04-08T07:42:44;13.27;;;9.50;;
44110;SDS011;29774;52.664;5.074;2023-04-08T07:45:10;11.23;;;9.85;;
44110;SDS011;29774;52.664;5.074;2023-04-08T07:47:36;11.48;;;9.23;;
44110;SDS011;29774;52.664;5.074;2023-04-08T07:50:05;11.88;;;9.23;;
44110;SDS011;29774;52.664;5.074;2023-04-08T07:52:31;12.55;;;8.75;;
44110;SDS011;29774;52.664;5.074;2023-04-08T07:54:57;11.73;;;9.07;;
44110;SDS011;29774;52.664;5.074;2023-04-08T07:57:23;10.40;;;8.73;;
44110;SDS011;29774;52.664;5.074;2023-04-08T07:59:49;10.30;;;8.63;;
44110;SDS011;29774;52.664;5.074;2023-04-08T08:02:15;11.90;;;9.35;;
44110;SDS011;29774;52.664;5.074;2023-04-08T08:04:40;11.30;;;9.57;;
44110;SDS011;29774;52.664;5.074;2023-04-08T08:07:06;13.15;;;9.32;;
44110;SDS011;29774;52.664;5.074;2023-04-08T08:09:31;10.40;;;8.90;;
44110;SDS011;29774;52.664;5.074;2023-04-08T08:11:57;11.48;;;9.45;;
44110;SDS011;29774;52.664;5.074;2023-04-08T08:14:22;13.52;;;9.93;;
44110;SDS011;29774;52.664;5.074;2023-04-08T08:16:50;10.75;;;8.98;;
44110;SDS011;29774;52.664;5.074;2023-04-08T08:19:16;21.27;;;10.73;;
44110;SDS011;29774;52.664;5.074;2023-04-08T08:21:42;13.05;;;10.65;;
44110;SDS011;29774;52.664;5.074;2023-04-08T08:24:07;13.70;;;10.75;;
44110;SDS011;29774;52.664;5.074;2023-04-08T08:26:33;15.88;;;10.13;;
44110;SDS011;29774;52.664;5.074;2023-04-08T08:29:00;15.27;;;10.27;;
44110;SDS011;29774;52.664;5.074;2023-04-08T08:31:27;12.85;;;10.30;;
44110;SDS011;29774;52.664;5.074;2023-04-08T08:33:52;12.50;;;9.60;;
44110;SDS011;29774;52.664;5.074;2023-04-08T08:36:18;12.52;;;10.38;;
44110;SDS011;29774;52.664;5.074;2023-04-08T08:38:44;11.98;;;9.70;;
44110;SDS011;29774;52.664;5.074;2023-04-08T08:41:09;14.10;;;9.80;;
44110;SDS011;29774;52.664;5.074;2023-04-08T08:43:35;10.35;;;9.05;;
44110;SDS011;29774;52.664;5.074;2023-04-08T08:46:02;10.43;;;8.93;;
44110;SDS011;29774;52.664;5.074;2023-04-08T08:48:27;11.90;;;9.80;;
44110;SDS011;29774;52.664;5.074;2023-04-08T08:50:53;11.25;;;9.70;;
44110;SDS011;29774;52.664;5.074;2023-04-08T08:53:19;11.80;;;9.52;;
44110;SDS011;29774;52.664;5.074;2023-04-08T08:55:44;11.95;;;9.38;;
44110;SDS011;29774;52.664;5.074;2023-04-08T08:58:10;10.10;;;8.05;;
44110;SDS011;29774;52.664;5.074;2023-04-08T09:00:36;29.60;;;17.55;;
44110;SDS011;29774;52.664;5.074;2023-04-08T09:05:46;11.52;;;9.40;;
44110;SDS011;29774;52.664;5.074;2023-04-08T09:08:22;13.73;;;8.65;;
44110;SDS011;29774;52.664;5.074;2023-04-08T09:11:12;9.27;;;8.25;;
44110;SDS011;29774;52.664;5.074;2023-04-08T09:13:47;10.18;;;8.60;;
44110;SDS011;29774;52.664;5.074;2023-04-08T09:16:14;10.27;;;8.02;;
44110;SDS011;29774;52.664;5.074;2023-04-08T09:18:44;10.68;;;8.38;;
44110;SDS011;29774;52.664;5.074;2023-04-08T09:21:11;9.75;;;8.10;;
44110;SDS011;29774;52.664;5.074;2023-04-08T09:23:42;9.80;;;8.20;;
44110;SDS011;29774;52.664;5.074;2023-04-08T09:26:13;11.30;;;9.48;;
44110;SDS011;29774;52.664;5.074;2023-04-08T09:28:40;11.23;;;9.13;;
44110;SDS011;29774;52.664;5.074;2023-04-08T09:34:13;10.45;;;8.32;;
44110;SDS011;29774;52.664;5.074;2023-04-08T09:36:40;11.90;;;8.95;;
44110;SDS011;29774;52.664;5.074;2023-04-08T09:39:06;9.18;;;7.85;;
44110;SDS011;29774;52.664;5.074;2023-04-08T09:41:36;12.43;;;8.75;;
44110;SDS011;29774;52.664;5.074;2023-04-08T09:44:04;10.65;;;9.00;;
44110;SDS011;29774;52.664;5.074;2023-04-08T09:54:47;11.40;;;9.35;;
44110;SDS011;29774;52.664;5.074;2023-04-08T09:57:40;10.88;;;8.73;;
44110;SDS011;29774;52.664;5.074;2023-04-08T10:00:48;11.32;;;8.63;;
44110;SDS011;29774;52.664;5.074;2023-04-08T10:05:48;10.80;;;8.45;;
44110;SDS011;29774;52.664;5.074;2023-04-08T10:08:16;10.60;;;7.88;;
44110;SDS011;29774;52.664;5.074;2023-04-08T10:10:42;9.98;;;7.95;;
44110;SDS011;29774;52.664;5.074;2023-04-08T10:13:09;11.10;;;8.63;;
44110;SDS011;29774;52.664;5.074;2023-04-08T10:15:35;12.15;;;9.27;;
44110;SDS011;29774;52.664;5.074;2023-04-08T10:23:02;10.82;;;9.20;;
44110;SDS011;29774;52.664;5.074;2023-04-08T10:27:59;8.93;;;8.02;;
44110;SDS011;29774;52.664;5.074;2023-04-08T10:32:56;8.40;;;6.90;;
44110;SDS011;29774;52.664;5.074;2023-04-08T10:35:37;10.75;;;7.15;;
44110;SDS011;29774;52.664;5.074;2023-04-08T10:38:06;10.38;;;8.75;;
44110;SDS011;29774;52.664;5.074;2023-04-08T10:40:36;10.02;;;8.48;;
44110;SDS011;29774;52.664;5.074;2023-04-08T10:43:03;7.18;;;6.10;;
44110;SDS011;29774;52.664;5.074;2023-04-08T10:45:29;12.15;;;9.10;;
44110;SDS011;29774;52.664;5.074;2023-04-08T10:47:55;8.20;;;5.80;;
44110;SDS011;29774;52.664;5.074;2023-04-08T10:50:20;9.35;;;8.05;;
44110;SDS011;29774;52.664;5.074;2023-04-08T10:52:49;7.03;;;6.32;;
44110;SDS011;29774;52.664;5.074;2023-04-08T10:55:20;10.30;;;7.97;;
44110;SDS011;29774;52.664;5.074;2023-04-08T10:57:47;9.93;;;7.72;;
44110;SDS011;29774;52.664;5.074;2023-04-08T11:00:18;13.88;;;10.70;;
44110;SDS011;29774;52.664;5.074;2023-04-08T11:02:59;13.73;;;10.40;;
44110;SDS011;29774;52.664;5.074;2023-04-08T11:05:25;13.82;;;11.23;;
44110;SDS011;29774;52.664;5.074;2023-04-08T11:07:51;11.52;;;9.30;;
44110;SDS011;29774;52.664;5.074;2023-04-08T11:10:17;14.63;;;9.30;;
44110;SDS011;29774;52.664;5.074;2023-04-08T11:12:43;8.38;;;6.75;;
44110;SDS011;29774;52.664;5.074;2023-04-08T11:15:08;10.35;;;8.25;;
44110;SDS011;29774;52.664;5.074;2023-04-08T11:17:35;12.18;;;10.40;;
44110;SDS011;29774;52.664;5.074;2023-04-08T11:20:01;12.63;;;10.00;;
44110;SDS011;29774;52.664;5.074;2023-04-08T11:22:30;12.48;;;9.70;;
44110;SDS011;29774;52.664;5.074;2023-04-08T11:24:57;12.27;;;8.93;;
44110;SDS011;29774;52.664;5.074;2023-04-08T11:27:23;9.77;;;7.85;;
44110;SDS011;29774;52.664;5.074;2023-04-08T11:29:50;16.27;;;11.15;;
44110;SDS011;29774;52.664;5.074;2023-04-08T11:32:20;12.55;;;11.05;;
44110;SDS011;29774;52.664;5.074;2023-04-08T11:34:47;15.55;;;11.52;;
44110;SDS011;29774;52.664;5.074;2023-04-08T11:37:13;14.63;;;11.23;;
44110;SDS011;29774;52.664;5.074;2023-04-08T11:39:39;14.73;;;12.43;;
44110;SDS011;29774;52.664;5.074;2023-04-08T11:42:07;16.63;;;13.15;;
44110;SDS011;29774;52.664;5.074;2023-04-08T11:44:33;16.88;;;13.02;;
44110;SDS011;29774;52.664;5.074;2023-04-08T11:46:58;15.60;;;12.55;;
44110;SDS011;29774;52.664;5.074;2023-04-08T11:49:26;17.23;;;13.45;;
44110;SDS011;29774;52.664;5.074;2023-04-08T11:51:58;18.50;;;13.80;;
44110;SDS011;29774;52.664;5.074;2023-04-08T11:54:27;15.90;;;12.02;;
44110;SDS011;29774;52.664;5.074;2023-04-08T11:56:56;12.35;;;9.73;;
44110;SDS011;29774;52.664;5.074;2023-04-08T11:59:22;17.52;;;13.30;;
44110;SDS011;29774;52.664;5.074;2023-04-08T12:01:50;13.77;;;10.95;;
44110;SDS011;29774;52.664;5.074;2023-04-08T12:04:16;15.40;;;11.05;;
44110;SDS011;29774;52.664;5.074;2023-04-08T12:06:41;17.90;;;12.90;;
44110;SDS011;29774;52.664;5.074;2023-04-08T12:09:10;15.27;;;11.95;;
44110;SDS011;29774;52.664;5.074;2023-04-08T12:11:39;10.68;;;8.85;;
44110;SDS011;29774;52.664;5.074;2023-04-08T12:14:04;13.77;;;11.35;;
44110;SDS011;29774;52.664;5.074;2023-04-08T12:16:30;15.65;;;11.50;;
44110;SDS011;29774;52.664;5.074;2023-04-08T12:18:55;14.68;;;11.27;;
44110;SDS011;29774;52.664;5.074;2023-04-08T12:21:21;16.33;;;12.50;;
44110;SDS011;29774;52.664;5.074;2023-04-08T12:23:47;15.30;;;11.95;;
44110;SDS011;29774;52.664;5.074;2023-04-08T12:26:12;11.05;;;8.60;;
44110;SDS011;29774;52.664;5.074;2023-04-08T12:28:38;14.55;;;10.48;;
44110;SDS011;29774;52.664;5.074;2023-04-08T12:31:04;10.75;;;9.05;;
44110;SDS011;29774;52.664;5.074;2023-04-08T12:33:30;13.38;;;10.30;;
44110;SDS011;29774;52.664;5.074;2023-04-08T12:35:56;11.60;;;9.18;;
44110;SDS011;29774;52.664;5.074;2023-04-08T12:38:23;14.43;;;9.80;;
44110;SDS011;29774;52.664;5.074;2023-04-08T12:40:49;15.40;;;11.73;;
44110;SDS011;29774;52.664;5.074;2023-04-08T12:43:15;13.40;;;10.35;;
44110;SDS011;29774;52.664;5.074;2023-04-08T12:45:40;14.57;;;11.88;;
44110;SDS011;29774;52.664;5.074;2023-04-08T12:48:06;14.40;;;11.10;;
44110;SDS011;29774;52.664;5.074;2023-04-08T12:50:32;17.08;;;11.27;;
44110;SDS011;29774;52.664;5.074;2023-04-08T12:52:57;12.73;;;11.07;;
44110;SDS011;29774;52.664;5.074;2023-04-08T12:55:23;14.35;;;11.45;;
44110;SDS011;29774;52.664;5.074;2023-04-08T12:57:52;15.20;;;11.70;;
44110;SDS011;29774;52.664;5.074;2023-04-08T13:00:18;12.88;;;9.77;;
44110;SDS011;29774;52.664;5.074;2023-04-08T13:02:44;10.93;;;9.35;;
44110;SDS011;29774;52.664;5.074;2023-04-08T13:05:10;15.48;;;11.98;;
44110;SDS011;29774;52.664;5.074;2023-04-08T13:07:36;11.85;;;10.13;;
44110;SDS011;29774;52.664;5.074;2023-04-08T13:10:02;13.05;;;10.70;;
44110;SDS011;29774;52.664;5.074;2023-04-08T13:12:28;20.27;;;11.15;;
44110;SDS011;29774;52.664;5.074;2023-04-08T13:14:54;14.57;;;11.55;;
44110;SDS011;29774;52.664;5.074;2023-04-08T13:17:20;12.75;;;10.57;;
44110;SDS011;29774;52.664;5.074;2023-04-08T13:19:45;12.20;;;10.18;;
44110;SDS011;29774;52.664;5.074;2023-04-08T13:22:15;13.20;;;10.93;;
44110;SDS011;29774;52.664;5.074;2023-04-08T13:24:40;12.30;;;10.32;;
44110;SDS011;29774;52.664;5.074;2023-04-08T13:27:06;14.32;;;11.38;;
44110;SDS011;29774;52.664;5.074;2023-04-08T13:29:33;12.35;;;9.63;;
44110;SDS011;29774;52.664;5.074;2023-04-08T13:31:58;10.25;;;8.20;;
44110;SDS011;29774;52.664;5.074;2023-04-08T13:34:25;11.82;;;10.05;;
44110;SDS011;29774;52.664;5.074;2023-04-08T13:36:51;10.07;;;7.15;;
44110;SDS011;29774;52.664;5.074;2023-04-08T13:39:17;11.52;;;8.88;;
44110;SDS011;29774;52.664;5.074;2023-04-08T13:41:42;12.43;;;9.50;;
44110;SDS011;29774;52.664;5.074;2023-04-08T13:44:08;10.57;;;8.50;;
44110;SDS011;29774;52.664;5.074;2023-04-08T13:46:34;10.57;;;7.63;;
44110;SDS011;29774;52.664;5.074;2023-04-08T13:49:00;8.00;;;6.03;;
44110;SDS011;29774;52.664;5.074;2023-04-08T13:51:27;9.70;;;7.38;;
44110;SDS011;29774;52.664;5.074;2023-04-08T13:53:52;9.90;;;7.88;;
44110;SDS011;29774;52.664;5.074;2023-04-08T13:56:18;7.57;;;6.85;;
44110;SDS011;29774;52.664;5.074;2023-04-08T13:58:44;9.38;;;7.88;;
44110;SDS011;29774;52.664;5.074;2023-04-08T14:01:11;12.10;;;8.35;;
44110;SDS011;29774;52.664;5.074;2023-04-08T14:03:36;8.70;;;7.68;;
44110;SDS011;29774;52.664;5.074;2023-04-08T14:06:02;8.55;;;7.07;;
44110;SDS011;29774;52.664;5.074;2023-04-08T14:08:27;9.15;;;7.43;;
44110;SDS011;29774;52.664;5.074;2023-04-08T14:10:56;9.77;;;8.02;;
44110;SDS011;29774;52.664;5.074;2023-04-08T14:13:23;9.68;;;8.55;;
44110;SDS011;29774;52.664;5.074;2023-04-08T14:15:48;9.45;;;7.75;;
44110;SDS011;29774;52.664;5.074;2023-04-08T14:18:14;10.45;;;8.20;;
44110;SDS011;29774;52.664;5.074;2023-04-08T14:20:42;9.18;;;7.72;;
44110;SDS011;29774;52.664;5.074;2023-04-08T14:23:07;11.75;;;8.40;;
44110;SDS011;29774;52.664;5.074;2023-04-08T14:25:33;10.18;;;7.95;;
44110;SDS011;29774;52.664;5.074;2023-04-08T14:27:59;9.98;;;7.95;;
44110;SDS011;29774;52.664;5.074;2023-04-08T14:30:25;8.13;;;6.65;;
44110;SDS011;29774;52.664;5.074;2023-04-08T14:32:51;9.02;;;7.47;;
44110;SDS011;29774;52.664;5.074;2023-04-08T14:35:16;10.30;;;8.07;;
44110;SDS011;29774;52.664;5.074;2023-04-08T14:37:42;8.77;;;7.88;;
44110;SDS011;29774;52.664;5.074;2023-04-08T14:40:08;9.25;;;8.20;;
44110;SDS011;29774;52.664;5.074;2023-04-08T14:42:34;7.50;;;6.60;;
44110;SDS011;29774;52.664;5.074;2023-04-08T14:45:00;10.13;;;8.60;;
44110;SDS011;29774;52.664;5.074;2023-04-08T14:47:26;10.57;;;8.23;;
44110;SDS011;29774;52.664;5.074;2023-04-08T14:49:51;10.45;;;9.18;;
44110;SDS011;29774;52.664;5.074;2023-04-08T14:52:17;10.02;;;8.50;;
44110;SDS011;29774;52.664;5.074;2023-04-08T14:54:42;10.45;;;8.65;;
44110;SDS011;29774;52.664;5.074;2023-04-08T14:57:09;11.52;;;9.15;;
44110;SDS011;29774;52.664;5.074;2023-04-08T14:59:35;9.38;;;7.57;;
44110;SDS011;29774;52.664;5.074;2023-04-08T15:02:01;7.30;;;6.18;;
44110;SDS011;29774;52.664;5.074;2023-04-08T15:04:26;10.75;;;7.82;;